Time;durP1;ratioP1;P1;durP2;ratioP2;P2;SDS_P1;SDS_P2;PMS_P1;PMS_P2;Temp;Humidity;BMP_temperature;BMP_pressure;BME280_temperature;BME280_humidity;BME280_pressure;Samples;Min_cycle;Max_cycle;Signal;HPM_P1;HPM_P2
2024/02/03 00:01:10;;;;;;;5.10;3.60;;;;;;;3.86;73.25;97260.82;104937;1268;102468;-73
2024/02/03 00:03:57;;;;;;;6.30;4.00;;;;;;;3.87;73.14;97257.46;104929;1257;101458;-74
2024/02/03 00:06:25;;;;;;;9.80;4.80;;;;;;;3.89;73.16;97258.13;104866;1259;99962;-73
2024/02/03 00:08:53;;;;;;;8.20;4.20;;;;;;;3.91;73.38;97250.11;104895;1269;97858;-73
2024/02/03 00:11:21;;;;;;;5.10;3.80;;;;;;;3.92;73.61;97244.77;104834;1271;98021;-73
2024/02/03 00:13:49;;;;;;;7.60;4.10;;;;;;;3.94;73.47;97244.59;104835;1254;102461;-73
2024/02/03 00:16:16;;;;;;;6.10;3.90;;;;;;;3.96;73.37;97244.16;104913;1258;101398;-74
2024/02/03 00:18:45;;;;;;;5.80;3.90;;;;;;;3.99;73.34;97248.92;104787;1269;100088;-74
2024/02/03 00:21:12;;;;;;;7.10;4.80;;;;;;;4.02;73.38;97249.15;104834;1269;97252;-74
2024/02/03 00:23:40;;;;;;;10.30;4.00;;;;;;;4.05;73.51;97249.02;104808;1269;98056;-73
2024/02/03 00:26:08;;;;;;;6.90;4.70;;;;;;;4.07;73.60;97242.23;104819;1258;102205;-74
2024/02/03 00:28:36;;;;;;;6.50;4.40;;;;;;;4.08;73.75;97240.66;104865;1257;101234;-73
2024/02/03 00:31:03;;;;;;;7.70;4.90;;;;;;;4.07;74.00;97237.02;104752;1260;99757;-75
2024/02/03 00:33:31;;;;;;;7.90;4.90;;;;;;;4.08;73.97;97225.41;104806;1269;96921;-75
2024/02/03 00:35:59;;;;;;;9.60;4.60;;;;;;;4.07;74.35;97233.73;104768;1254;97165;-77
2024/02/03 00:38:27;;;;;;;9.60;4.90;;;;;;;4.06;73.90;97229.52;104673;1260;100930;-78
2024/02/03 00:40:55;;;;;;;8.00;4.40;;;;;;;4.07;74.08;97234.55;104790;1255;101400;-78
2024/02/03 00:43:23;;;;;;;7.60;5.00;;;;;;;4.08;73.84;97226.97;104806;1255;99787;-78
2024/02/03 00:45:51;;;;;;;8.90;4.90;;;;;;;4.10;73.73;97227.41;104893;1259;96809;-78
2024/02/03 00:48:19;;;;;;;7.20;4.30;;;;;;;4.13;73.48;97230.84;104889;1260;96560;-78
2024/02/03 00:50:47;;;;;;;9.30;5.50;;;;;;;4.15;73.64;97228.15;104863;1260;102314;-78
2024/02/03 00:53:15;;;;;;;8.20;5.20;;;;;;;4.14;73.77;97225.55;104858;1261;108393;-78
2024/02/03 00:55:42;;;;;;;10.30;4.90;;;;;;;4.14;73.82;97231.92;104736;1261;100236;-78
2024/02/03 00:58:10;;;;;;;8.40;5.00;;;;;;;4.15;73.68;97224.38;104893;1260;97407;-77
2024/02/03 01:00:38;;;;;;;7.80;5.90;;;;;;;4.17;73.96;97230.05;104778;1260;97052;-77
2024/02/03 01:03:06;;;;;;;9.00;5.10;;;;;;;4.18;74.15;97229.58;104865;1257;102154;-76
2024/02/03 01:05:34;;;;;;;7.60;5.10;;;;;;;4.19;74.04;97228.38;104851;1269;101389;-76
2024/02/03 01:08:01;;;;;;;9.90;5.00;;;;;;;4.21;73.82;97235.78;104826;1268;100002;-76
2024/02/03 01:10:30;;;;;;;10.80;5.00;;;;;;;4.22;73.89;97240.25;104779;1260;97499;-76
2024/02/03 01:12:58;;;;;;;7.00;4.70;;;;;;;4.24;73.73;97238.83;104866;1260;97158;-76
2024/02/03 01:15:26;;;;;;;9.50;5.50;;;;;;;4.25;74.00;97236.52;104826;1269;102394;-77
2024/02/03 01:17:54;;;;;;;10.70;5.20;;;;;;;4.27;73.95;97241.85;104746;1260;101376;-76
2024/02/03 01:20:22;;;;;;;10.40;5.60;;;;;;;4.28;73.85;97239.27;104745;1269;99058;-76
2024/02/03 01:22:49;;;;;;;8.00;5.50;;;;;;;4.29;73.98;97239.14;104821;1254;97504;-76
2024/02/03 01:25:17;;;;;;;10.80;5.90;;;;;;;4.29;74.21;97238.61;104837;1255;97756;-78
2024/02/03 01:27:45;;;;;;;10.20;5.50;;;;;;;4.29;74.19;97236.46;104875;1270;102287;-78
2024/02/03 01:30:13;;;;;;;11.90;6.10;;;;;;;4.30;74.68;97242.40;104867;1259;101432;-77
2024/02/03 01:32:41;;;;;;;11.90;6.60;;;;;;;4.31;74.52;97239.13;104833;1260;99945;-78
2024/02/03 01:35:09;;;;;;;11.80;6.40;;;;;;;4.32;74.62;97238.95;104863;1271;97881;-77
2024/02/03 01:37:37;;;;;;;11.50;6.20;;;;;;;4.33;74.61;97234.71;104797;1268;97363;-78
2024/02/03 01:40:05;;;;;;;9.80;6.50;;;;;;;4.33;74.56;97238.82;104802;1276;102491;-78
2024/02/03 01:42:33;;;;;;;10.90;6.70;;;;;;;4.33;74.94;97236.18;104789;1260;101144;-81
2024/02/03 01:45:01;;;;;;;11.30;5.80;;;;;;;4.33;75.36;97241.56;104791;1264;100083;-82
2024/02/03 01:47:29;;;;;;;13.10;6.80;;;;;;;4.31;75.58;97237.33;104874;1266;97797;-82
2024/02/03 01:49:57;;;;;;;14.00;7.00;;;;;;;4.29;76.18;97242.34;104844;1255;97106;-82
2024/02/03 01:52:26;;;;;;;13.30;6.50;;;;;;;4.27;75.89;97242.42;104853;1254;101740;-82
2024/02/03 01:54:53;;;;;;;9.70;5.60;;;;;;;4.26;75.97;97246.06;104817;1257;101321;-82
2024/02/03 01:57:24;;;;;;;12.20;5.80;;;;;;;4.28;76.48;97248.52;104858;1257;99959;-82
2024/02/03 01:59:54;;;;;;;10.80;6.10;;;;;;;4.29;76.75;97245.05;104791;1270;96559;-82
2024/02/03 02:02:22;;;;;;;9.60;6.50;;;;;;;4.31;76.66;97240.33;104871;1258;97311;-82
2024/02/03 02:04:50;;;;;;;13.10;5.70;;;;;;;4.33;76.90;97236.05;104843;1265;102247;-82
2024/02/03 02:07:17;;;;;;;10.90;6.30;;;;;;;4.34;76.86;97234.46;104858;1258;101264;-82
2024/02/03 02:09:45;;;;;;;10.00;6.10;;;;;;;4.36;77.15;97236.38;104792;1268;99915;-82
2024/02/03 02:12:13;;;;;;;10.10;5.70;;;;;;;4.38;77.48;97232.20;104864;1259;97234;-82
2024/02/03 02:14:41;;;;;;;10.30;6.60;;;;;;;4.41;77.13;97228.16;104753;1260;98242;-82
2024/02/03 02:17:09;;;;;;;13.00;6.40;;;;;;;4.42;77.31;97226.06;104753;1254;102488;-82
2024/02/03 02:19:37;;;;;;;9.90;5.90;;;;;;;4.42;77.41;97222.89;104864;1258;101377;-82
2024/02/03 02:22:05;;;;;;;9.70;5.90;;;;;;;4.43;77.84;97224.20;104791;1267;97867;-78
2024/02/03 02:24:33;;;;;;;9.60;6.60;;;;;;;4.45;78.50;97219.64;104815;1254;98093;-78
2024/02/03 02:27:01;;;;;;;12.60;6.30;;;;;;;4.46;78.52;97218.25;104816;1261;97178;-78
2024/02/03 02:29:29;;;;;;;9.70;6.40;;;;;;;4.45;78.31;97214.33;104818;1268;101826;-79
2024/02/03 02:31:56;;;;;;;9.70;5.80;;;;;;;4.44;78.17;97210.16;104782;1270;101717;-78
2024/02/03 02:34:24;;;;;;;12.90;6.70;;;;;;;4.44;78.27;97211.06;104812;1267;106422;-78
2024/02/03 02:36:52;;;;;;;11.00;6.20;;;;;;;4.46;78.27;97217.05;104788;1260;96559;-78
2024/02/03 02:39:19;;;;;;;11.50;7.00;;;;;;;4.48;78.87;97217.61;104855;1254;97057;-78
2024/02/03 02:41:47;;;;;;;10.40;6.80;;;;;;;4.51;79.10;97216.23;104837;1259;102468;-78
2024/02/03 02:44:15;;;;;;;14.10;6.80;;;;;;;4.52;78.77;97207.95;104770;1269;101659;-82
2024/02/03 02:46:42;;;;;;;10.00;7.30;;;;;;;4.53;78.46;97205.17;104779;1269;99972;-78
2024/02/03 02:49:10;;;;;;;12.90;7.60;;;;;;;4.52;78.59;97209.95;104836;1269;97873;-78
2024/02/03 02:51:38;;;;;;;11.00;6.80;;;;;;;4.49;78.54;97215.95;104803;1259;97097;-78
2024/02/03 02:54:06;;;;;;;10.40;7.00;;;;;;;4.48;78.43;97209.27;104782;1258;102200;-78
2024/02/03 02:56:34;;;;;;;11.90;6.40;;;;;;;4.48;78.30;97209.42;104887;1254;101268;-78
2024/02/03 02:59:02;;;;;;;15.50;7.90;;;;;;;4.50;78.29;97206.35;104830;1270;99797;-82
2024/02/03 03:01:29;;;;;;;12.60;7.40;;;;;;;4.52;78.45;97207.95;104769;1253;96560;-82
2024/02/03 03:03:58;;;;;;;9.50;6.70;;;;;;;4.52;78.43;97207.25;104769;1269;96995;-81
2024/02/03 03:06:26;;;;;;;10.60;6.90;;;;;;;4.52;78.40;97207.08;104941;1258;101794;-82
2024/02/03 03:08:54;;;;;;;12.50;6.90;;;;;;;4.53;78.65;97204.92;104814;1267;101226;-81
2024/02/03 03:11:21;;;;;;;9.40;7.10;;;;;;;4.56;78.40;97202.64;104780;1260;99613;-82
2024/02/03 03:13:49;;;;;;;14.00;8.00;;;;;;;4.60;78.38;97204.47;104849;1254;97240;-82
2024/02/03 03:16:17;;;;;;;12.90;7.10;;;;;;;4.63;78.22;97207.36;104835;1258;97881;-82
2024/02/03 03:18:45;;;;;;;9.60;6.50;;;;;;;4.65;78.10;97206.81;104812;1260;102283;-78
2024/02/03 03:21:12;;;;;;;12.50;7.10;;;;;;;4.66;78.13;97211.09;104847;1269;100084;-78
2024/02/03 03:23:40;;;;;;;12.70;6.80;;;;;;;4.68;78.22;97206.43;104860;1257;99621;-78
2024/02/03 03:26:08;;;;;;;9.70;6.50;;;;;;;4.72;78.47;97203.58;104845;1269;96614;-78
2024/02/03 03:28:35;;;;;;;10.40;6.00;;;;;;;4.79;78.28;97204.27;104835;1270;96518;-78
2024/02/03 03:31:03;;;;;;;11.90;6.10;;;;;;;4.86;78.22;97208.77;104872;1257;102319;-76
2024/02/03 03:33:31;;;;;;;10.00;6.40;;;;;;;4.92;78.04;97211.24;104747;1261;100137;-76
2024/02/03 03:35:58;;;;;;;11.90;6.40;;;;;;;4.99;77.83;97207.02;104851;1270;99903;-77
2024/02/03 03:38:28;;;;;;;11.20;6.40;;;;;;;5.04;77.78;97211.84;104797;1268;97095;-78
2024/02/03 03:40:57;;;;;;;10.90;6.50;;;;;;;5.07;77.62;97215.17;104875;1260;97183;-78
2024/02/03 03:43:24;;;;;;;11.30;6.00;;;;;;;5.09;77.39;97211.38;104871;1261;102205;-78
2024/02/03 03:45:52;;;;;;;11.70;6.50;;;;;;;5.12;77.46;97211.26;104877;1258;101353;-77
2024/02/03 03:48:19;;;;;;;11.10;6.10;;;;;;;5.16;77.59;97215.04;104774;1260;99078;-76
2024/02/03 03:50:48;;;;;;;10.90;6.00;;;;;;;5.19;77.36;97210.69;104816;1258;97860;-76
2024/02/03 03:53:16;;;;;;;10.10;5.80;;;;;;;5.22;77.32;97211.58;104862;1257;97164;-76
2024/02/03 03:55:44;;;;;;;8.50;6.20;;;;;;;5.25;77.20;97208.92;104848;1254;102527;-76
2024/02/03 03:58:11;;;;;;;9.80;6.10;;;;;;;5.28;77.07;97211.73;104980;1267;101378;-82
2024/02/03 04:00:39;;;;;;;12.00;6.10;;;;;;;5.30;77.02;97211.47;104678;1269;100716;-76
2024/02/03 04:03:07;;;;;;;9.80;5.60;;;;;;;5.32;77.18;97211.93;104891;1254;97388;-76
2024/02/03 04:05:35;;;;;;;8.50;5.30;;;;;;;5.32;77.08;97207.65;104755;1260;97493;-76
2024/02/03 04:08:03;;;;;;;10.60;6.00;;;;;;;5.32;77.02;97205.35;104873;1257;102303;-76
2024/02/03 04:10:31;;;;;;;7.60;5.80;;;;;;;5.32;77.16;97208.55;104861;1257;101245;-77
2024/02/03 04:12:59;;;;;;;10.80;6.00;;;;;;;5.34;77.02;97209.28;104823;1261;100112;-76
2024/02/03 04:15:28;;;;;;;9.60;5.70;;;;;;;5.36;76.95;97205.96;104809;1258;96943;-77
2024/02/03 04:17:58;;;;;;;8.80;5.40;;;;;;;5.37;77.32;97198.69;104893;1261;97057;-76
2024/02/03 04:20:26;;;;;;;8.60;5.50;;;;;;;5.39;77.23;97204.86;104934;1254;102281;-77
2024/02/03 04:22:54;;;;;;;9.20;5.80;;;;;;;5.42;77.09;97207.36;104867;1260;101440;-77
2024/02/03 04:25:21;;;;;;;8.40;5.10;;;;;;;5.45;77.02;97205.98;104711;1261;99960;-76
2024/02/03 04:27:49;;;;;;;9.80;5.60;;;;;;;5.48;76.83;97211.71;104810;1255;97226;-76
2024/02/03 04:30:19;;;;;;;10.00;5.70;;;;;;;5.49;76.82;97213.52;104808;1258;97466;-76
2024/02/03 04:32:46;;;;;;;7.00;5.60;;;;;;;5.50;76.90;97215.25;104879;1258;102199;-77
2024/02/03 04:35:15;;;;;;;8.70;5.30;;;;;;;5.52;76.86;97215.20;104830;1272;100193;-81
2024/02/03 04:37:43;;;;;;;12.90;5.80;;;;;;;5.53;76.69;97217.13;104804;1261;99838;-81
2024/02/03 04:40:11;;;;;;;9.50;5.30;;;;;;;5.54;76.76;97217.92;104782;1254;96566;-82
2024/02/03 04:42:39;;;;;;;8.80;5.90;;;;;;;5.55;76.80;97210.35;104846;1258;96686;-81
2024/02/03 04:45:08;;;;;;;8.60;4.80;;;;;;;5.56;76.70;97215.52;104816;1257;102329;-82
2024/02/03 04:47:36;;;;;;;7.70;4.90;;;;;;;5.59;76.78;97216.41;104885;1254;101186;-76
2024/02/03 04:50:04;;;;;;;9.40;5.30;;;;;;;5.62;76.74;97213.58;104808;1260;100034;-77
2024/02/03 04:52:31;;;;;;;8.70;5.20;;;;;;;5.63;76.63;97220.23;104825;1258;98147;-78
2024/02/03 04:54:59;;;;;;;8.50;4.60;;;;;;;5.63;76.78;97222.50;104779;1257;97070;-77
2024/02/03 04:57:27;;;;;;;12.00;6.20;;;;;;;5.63;76.92;97224.14;104852;1269;101871;-76
2024/02/03 04:59:54;;;;;;;10.70;5.60;;;;;;;5.63;76.93;97225.78;104835;1276;101348;-76
2024/02/03 05:02:22;;;;;;;8.40;5.20;;;;;;;5.63;77.10;97226.32;104810;1254;99888;-82
2024/02/03 05:04:50;;;;;;;11.50;4.60;;;;;;;5.64;76.91;97227.45;104847;1269;96571;-81
2024/02/03 05:07:17;;;;;;;7.50;4.00;;;;;;;5.65;76.92;97221.73;104831;1258;97319;-82
2024/02/03 05:09:45;;;;;;;10.90;5.20;;;;;;;5.67;77.01;97224.95;104821;1266;101957;-80
2024/02/03 05:12:13;;;;;;;10.60;5.90;;;;;;;5.68;77.16;97225.85;104847;1255;102002;-82
2024/02/03 05:14:40;;;;;;;11.30;5.50;;;;;;;5.68;77.15;97229.39;104677;1256;100124;-78
2024/02/03 05:17:08;;;;;;;7.30;4.80;;;;;;;5.68;77.20;97228.15;104836;1257;96573;-77
2024/02/03 05:19:36;;;;;;;10.20;5.20;;;;;;;5.68;77.32;97232.67;104827;1258;98280;-77
2024/02/03 05:22:03;;;;;;;6.20;4.60;;;;;;;5.68;77.44;97235.73;104815;1258;102506;-79
2024/02/03 05:24:31;;;;;;;6.10;3.70;;;;;;;5.68;77.33;97233.70;104697;1278;101395;-78
2024/02/03 05:26:59;;;;;;;7.40;3.90;;;;;;;5.70;77.41;97233.16;104819;1261;99945;-78
2024/02/03 05:29:27;;;;;;;6.30;4.50;;;;;;;5.73;77.27;97238.45;104827;1258;96536;-78
2024/02/03 05:31:55;;;;;;;6.20;4.00;;;;;;;5.74;77.29;97240.52;104738;1260;97221;-76
2024/02/03 05:34:22;;;;;;;5.70;4.00;;;;;;;5.73;77.21;97236.55;104835;1258;102473;-76
2024/02/03 05:36:50;;;;;;;6.50;3.90;;;;;;;5.74;77.25;97238.37;104830;1259;101382;-77
2024/02/03 05:39:17;;;;;;;4.80;3.40;;;;;;;5.75;77.49;97237.13;104807;1268;98774;-76
2024/02/03 05:41:45;;;;;;;6.80;3.90;;;;;;;5.78;77.22;97238.89;104821;1254;96575;-76
2024/02/03 05:44:13;;;;;;;7.00;3.90;;;;;;;5.82;77.15;97237.02;104875;1254;97807;-76
2024/02/03 05:46:40;;;;;;;6.50;3.80;;;;;;;5.83;77.13;97233.64;104826;1277;102206;-76
2024/02/03 05:49:08;;;;;;;7.60;4.70;;;;;;;5.83;77.29;97230.05;104827;1257;101255;-73
2024/02/03 05:51:36;;;;;;;7.90;4.10;;;;;;;5.82;77.38;97234.73;104785;1257;100172;-74
2024/02/03 05:54:03;;;;;;;6.40;3.60;;;;;;;5.80;77.43;97234.75;104814;1258;97018;-74
2024/02/03 05:56:37;;;;;;;4.70;3.60;;;;;;;5.81;77.31;97236.61;104829;1257;97091;-74
2024/02/03 05:59:05;;;;;;;5.10;3.40;;;;;;;5.83;77.33;97237.22;104836;1269;102581;-73
2024/02/03 06:01:32;;;;;;;5.30;3.20;;;;;;;5.86;77.10;97242.71;104862;1257;101273;-74
2024/02/03 06:04:04;;;;;;;8.20;3.90;;;;;;;5.89;77.12;97254.52;104821;1254;99845;-74
2024/02/03 06:06:32;;;;;;;3.20;2.20;;;;;;;5.90;77.11;97255.70;104808;1258;96685;-74
2024/02/03 06:09:00;;;;;;;5.30;3.10;;;;;;;5.92;76.83;97253.33;104840;1258;96982;-74
2024/02/03 06:11:28;;;;;;;5.00;3.10;;;;;;;5.97;76.64;97256.27;104841;1270;101984;-73
2024/02/03 06:13:55;;;;;;;5.20;3.60;;;;;;;6.01;76.72;97253.86;104895;1269;100382;-74
2024/02/03 06:16:23;;;;;;;7.30;3.80;;;;;;;6.02;76.76;97255.09;104843;1254;100282;-74
2024/02/03 06:18:51;;;;;;;3.60;3.00;;;;;;;6.02;76.81;97244.53;104777;1269;96585;-74
2024/02/03 06:21:18;;;;;;;6.40;3.50;;;;;;;6.02;76.78;97238.64;104822;1258;96989;-74
2024/02/03 06:23:46;;;;;;;7.30;4.10;;;;;;;6.03;76.93;97241.36;104802;1258;102459;-74
2024/02/03 06:26:14;;;;;;;4.30;3.30;;;;;;;6.03;77.12;97244.86;104797;1258;101689;-73
2024/02/03 06:28:42;;;;;;;5.50;3.40;;;;;;;6.02;77.02;97241.59;104809;1270;100018;-76
2024/02/03 06:31:09;;;;;;;5.10;3.20;;;;;;;6.01;77.17;97255.84;104818;1254;97941;-76
2024/02/03 06:33:37;;;;;;;4.10;3.20;;;;;;;6.00;77.18;97269.15;104811;1259;98098;-76
2024/02/03 06:36:05;;;;;;;7.60;3.90;;;;;;;6.00;77.21;97273.42;104860;1269;102232;-76
2024/02/03 06:38:33;;;;;;;7.40;3.80;;;;;;;6.00;77.20;97273.27;104842;1267;101438;-73
2024/02/03 06:41:00;;;;;;;11.60;4.00;;;;;;;6.00;77.27;97271.79;104841;1258;100087;-73
2024/02/03 06:43:28;;;;;;;6.70;3.40;;;;;;;6.01;77.28;97273.25;104847;1254;97196;-73
2024/02/03 06:45:56;;;;;;;3.70;3.10;;;;;;;6.02;77.31;97270.45;104842;1271;97804;-73
2024/02/03 06:48:23;;;;;;;3.60;3.10;;;;;;;6.05;77.30;97274.09;104817;1258;102403;-74
2024/02/03 06:50:51;;;;;;;5.10;3.70;;;;;;;6.06;77.10;97274.73;104841;1258;100666;-73
2024/02/03 06:53:19;;;;;;;4.60;3.10;;;;;;;6.09;76.99;97281.78;104773;1254;99498;-73
2024/02/03 06:55:46;;;;;;;6.50;4.80;;;;;;;6.10;76.97;97269.98;104824;1257;97201;-74
2024/02/03 06:58:14;;;;;;;9.90;5.60;;;;;;;6.12;76.97;97263.99;104857;1258;96575;-73
2024/02/03 07:00:42;;;;;;;7.40;3.60;;;;;;;6.17;76.64;97264.94;104774;1271;102202;-73
2024/02/03 07:03:11;;;;;;;9.60;5.30;;;;;;;6.22;76.64;97268.60;104880;1269;101174;-73
2024/02/03 07:05:40;;;;;;;7.00;4.60;;;;;;;6.25;76.55;97266.49;104914;1255;100041;-73
2024/02/03 07:08:08;;;;;;;6.20;3.70;;;;;;;6.26;76.61;97266.55;104838;1254;96860;-73
2024/02/03 07:10:35;;;;;;;7.00;3.70;;;;;;;6.28;76.42;97268.79;104827;1258;97117;-74
2024/02/03 07:13:03;;;;;;;3.90;3.50;;;;;;;6.31;76.26;97268.00;104596;1269;101416;-74
2024/02/03 07:15:31;;;;;;;6.80;4.40;;;;;;;6.34;76.10;97271.02;104826;1258;101393;-74
2024/02/03 07:17:58;;;;;;;7.00;4.40;;;;;;;6.37;75.98;97270.19;104849;1270;100121;-74
2024/02/03 07:20:26;;;;;;;6.10;4.20;;;;;;;6.40;75.84;97262.46;104724;1261;96661;-75
2024/02/03 07:22:54;;;;;;;6.80;3.50;;;;;;;6.43;75.70;97266.30;104838;1258;96850;-74
2024/02/03 07:25:22;;;;;;;5.30;3.40;;;;;;;6.48;75.57;97270.93;104855;1258;102173;-74
2024/02/03 07:27:49;;;;;;;4.90;3.50;;;;;;;6.52;75.48;97269.32;104866;1257;100581;-74
2024/02/03 07:30:17;;;;;;;5.40;3.50;;;;;;;6.56;75.27;97267.42;104743;1258;99752;-79
2024/02/03 07:32:45;;;;;;;4.50;3.20;;;;;;;6.59;75.04;97264.41;104752;1258;96810;-73
2024/02/03 07:35:12;;;;;;;6.20;3.50;;;;;;;6.62;74.80;97267.75;104887;1258;96991;-73
2024/02/03 07:37:40;;;;;;;4.60;3.10;;;;;;;6.66;74.79;97269.69;104813;1258;102215;-73
2024/02/03 07:40:09;;;;;;;3.80;3.20;;;;;;;6.68;74.71;97271.20;104721;1260;101592;-74
2024/02/03 07:42:36;;;;;;;6.30;3.30;;;;;;;6.71;74.50;97273.58;104868;1254;100282;-73
2024/02/03 07:45:04;;;;;;;5.10;2.70;;;;;;;6.74;74.35;97270.55;104862;1257;97141;-73
2024/02/03 07:47:33;;;;;;;4.40;3.10;;;;;;;6.76;74.38;97272.34;104902;1257;97078;-76
2024/02/03 07:50:00;;;;;;;5.20;3.60;;;;;;;6.79;74.34;97272.17;104869;1256;102419;-79
2024/02/03 07:52:28;;;;;;;6.10;3.90;;;;;;;6.82;74.12;97269.48;104863;1272;101482;-79
2024/02/03 07:54:56;;;;;;;5.20;3.60;;;;;;;6.85;74.03;97264.79;104782;1258;99982;-80
2024/02/03 07:57:24;;;;;;;4.80;3.60;;;;;;;6.89;73.87;97262.20;104727;1267;96587;-80
2024/02/03 07:59:51;;;;;;;5.90;4.30;;;;;;;6.93;73.86;97265.33;104840;1259;98033;-79
2024/02/03 08:02:19;;;;;;;9.10;5.60;;;;;;;6.95;73.53;97265.90;104799;1270;102199;-80
2024/02/03 08:04:47;;;;;;;7.40;4.40;;;;;;;6.98;73.47;97262.05;104882;1268;101379;-79
2024/02/03 08:07:14;;;;;;;6.40;4.30;;;;;;;7.01;73.39;97259.70;104780;1260;99975;-79
2024/02/03 08:09:42;;;;;;;4.90;4.20;;;;;;;7.04;73.37;97258.71;104682;1261;96642;-75
2024/02/03 08:12:10;;;;;;;4.30;3.60;;;;;;;7.07;73.20;97258.70;104846;1258;98437;-75
2024/02/03 08:14:37;;;;;;;6.50;3.70;;;;;;;7.10;73.01;97259.97;104907;1257;102307;-74
2024/02/03 08:17:05;;;;;;;4.90;3.50;;;;;;;7.12;72.83;97261.05;104810;1261;101652;-75
2024/02/03 08:19:33;;;;;;;5.20;3.60;;;;;;;7.14;72.86;97261.64;104818;1258;100307;-75
2024/02/03 08:22:01;;;;;;;4.70;3.60;;;;;;;7.16;72.81;97269.30;104689;1267;96519;-75
2024/02/03 08:24:28;;;;;;;4.50;3.30;;;;;;;7.19;72.86;97262.85;104933;1258;97085;-75
2024/02/03 08:26:56;;;;;;;6.40;3.90;;;;;;;7.21;72.81;97266.52;104809;1260;101264;-75
2024/02/03 08:29:24;;;;;;;7.10;3.70;;;;;;;7.22;72.82;97272.64;104891;1255;101485;-77
2024/02/03 08:31:52;;;;;;;5.60;3.90;;;;;;;7.24;72.50;97264.06;104850;1258;100049;-75
2024/02/03 08:34:20;;;;;;;5.50;4.10;;;;;;;7.25;72.54;97269.59;104803;1266;96576;-76
2024/02/03 08:36:47;;;;;;;5.80;4.10;;;;;;;7.27;72.61;97270.94;104815;1259;96628;-76
2024/02/03 08:39:15;;;;;;;6.80;4.00;;;;;;;7.29;72.48;97267.32;104873;1271;102452;-76
2024/02/03 08:41:43;;;;;;;4.00;3.40;;;;;;;7.31;72.51;97270.14;104854;1272;101619;-76
2024/02/03 08:44:10;;;;;;;5.80;3.70;;;;;;;7.33;72.52;97267.77;104856;1257;100167;-76
2024/02/03 08:46:38;;;;;;;5.40;4.10;;;;;;;7.33;72.38;97265.20;104898;1258;96627;-76
2024/02/03 08:49:06;;;;;;;5.80;4.10;;;;;;;7.35;72.54;97272.36;104777;1260;97354;-76
2024/02/03 08:51:33;;;;;;;6.20;4.00;;;;;;;7.37;72.48;97266.84;104867;1257;102234;-76
2024/02/03 08:54:01;;;;;;;6.60;4.30;;;;;;;7.40;72.52;97270.21;104843;1254;101528;-76
2024/02/03 08:56:29;;;;;;;5.90;4.40;;;;;;;7.42;72.50;97274.78;104821;1254;99974;-76
2024/02/03 08:58:56;;;;;;;6.20;4.50;;;;;;;7.44;72.57;97275.58;104841;1276;97897;-76
2024/02/03 09:01:24;;;;;;;7.60;4.40;;;;;;;7.47;72.60;97273.46;104855;1258;97016;-77
2024/02/03 09:03:52;;;;;;;5.90;4.10;;;;;;;7.49;72.60;97267.59;104943;1257;102419;-76
2024/02/03 09:06:19;;;;;;;8.80;5.60;;;;;;;7.50;72.62;97264.58;104936;1258;108273;-76
2024/02/03 09:08:47;;;;;;;8.60;6.10;;;;;;;7.52;72.40;97265.27;104813;1257;100093;-76
2024/02/03 09:11:15;;;;;;;5.80;4.00;;;;;;;7.54;72.37;97270.77;104871;1258;96651;-77
2024/02/03 09:13:43;;;;;;;6.90;5.10;;;;;;;7.56;72.37;97268.73;104815;1270;97461;-76
2024/02/03 09:16:11;;;;;;;11.20;6.40;;;;;;;7.57;72.41;97269.77;104874;1257;102281;-75
2024/02/03 09:18:39;;;;;;;18.10;10.00;;;;;;;7.59;72.40;97265.65;104845;1267;101386;-75
2024/02/03 09:21:12;;;;;;;33.20;16.00;;;;;;;7.61;72.46;97270.04;104818;1258;100090;-75
2024/02/03 09:23:40;;;;;;;15.50;7.60;;;;;;;7.63;72.40;97274.05;104832;1258;96572;-75
2024/02/03 09:26:08;;;;;;;7.60;5.20;;;;;;;7.65;72.43;97272.21;104878;1259;97884;-75
2024/02/03 09:28:36;;;;;;;8.00;4.60;;;;;;;7.66;72.47;97272.88;104830;1254;101839;-75
2024/02/03 09:31:05;;;;;;;7.40;4.40;;;;;;;7.65;72.34;97271.48;104887;1260;101377;-75
2024/02/03 09:33:33;;;;;;;7.20;4.80;;;;;;;7.65;72.45;97265.84;104801;1259;99998;-74
2024/02/03 09:36:05;;;;;;;7.10;5.30;;;;;;;7.64;72.52;97265.70;104830;1258;97913;-75
2024/02/03 09:38:32;;;;;;;9.50;4.00;;;;;;;7.63;72.52;97258.30;104858;1258;96566;-75
2024/02/03 09:41:00;;;;;;;10.30;6.50;;;;;;;7.63;72.45;97261.03;104832;1254;102089;-75
2024/02/03 09:43:28;;;;;;;14.00;8.80;;;;;;;7.63;72.51;97261.08;104879;1254;100336;-75
2024/02/03 09:45:57;;;;;;;10.20;6.20;;;;;;;7.62;73.22;97258.59;104877;1258;99195;-80
2024/02/03 09:48:25;;;;;;;12.90;6.40;;;;;;;7.60;73.53;97264.25;104847;1255;97489;-80
2024/02/03 09:50:52;;;;;;;10.30;7.00;;;;;;;7.58;73.65;97262.14;104866;1257;97097;-80
2024/02/03 09:53:20;;;;;;;10.90;6.00;;;;;;;7.57;73.66;97259.11;104837;1258;102397;-80
2024/02/03 09:55:48;;;;;;;9.50;5.60;;;;;;;7.54;73.97;97255.48;104804;1257;101972;-80
2024/02/03 09:58:16;;;;;;;7.50;4.90;;;;;;;7.51;74.07;97255.70;104761;1254;100095;-80
2024/02/03 10:00:44;;;;;;;6.40;4.60;;;;;;;7.49;74.04;97252.34;104810;1271;96644;-80
2024/02/03 10:03:19;;;;;;;11.10;8.00;;;;;;;7.48;74.23;97251.23;104859;1258;97056;-75
2024/02/03 10:05:53;;;;;;;9.80;5.60;;;;;;;7.48;74.07;97247.10;104841;1255;102141;-75
2024/02/03 10:08:20;;;;;;;6.30;4.60;;;;;;;7.48;74.13;97244.46;104815;1256;101754;-75
2024/02/03 10:10:53;;;;;;;7.60;4.60;;;;;;;7.49;74.24;97243.30;104696;1255;98952;-75
2024/02/03 10:13:20;;;;;;;4.40;3.80;;;;;;;7.48;74.13;97247.89;104778;1261;96573;-75
2024/02/03 10:16:00;;;;;;;4.50;3.50;;;;;;;7.49;73.95;97252.22;104833;1258;97202;-80
2024/02/03 10:18:29;;;;;;;12.80;8.30;;;;;;;7.52;73.79;97252.02;104821;1258;102471;-81
2024/02/03 10:20:56;;;;;;;7.60;5.00;;;;;;;7.54;73.73;97249.98;104766;1255;101533;-80
2024/02/03 10:23:24;;;;;;;5.00;4.10;;;;;;;7.56;73.76;97253.14;104777;1258;100154;-81
2024/02/03 10:26:01;;;;;;;6.40;4.10;;;;;;;7.58;73.68;97251.80;104780;1258;96680;-80
2024/02/03 10:28:29;;;;;;;14.10;9.00;;;;;;;7.59;73.48;97246.98;104887;1255;97260;-79
2024/02/03 10:31:03;;;;;;;13.60;7.60;;;;;;;7.62;73.47;97246.69;105062;1258;102116;-75
2024/02/03 10:33:31;;;;;;;12.90;7.30;;;;;;;7.66;73.40;97248.52;106945;1255;101264;-75
2024/02/03 10:36:01;;;;;;;9.40;5.50;;;;;;;7.69;73.26;97250.76;104915;1254;99902;-75
2024/02/03 10:38:29;;;;;;;19.50;11.40;;;;;;;7.72;73.17;97245.58;104776;1258;97503;-75
2024/02/03 10:40:57;;;;;;;25.70;13.90;;;;;;;7.74;73.24;97242.43;104980;1258;98203;-74
2024/02/03 10:43:29;;;;;;;25.10;12.90;;;;;;;7.76;72.97;97242.70;104685;1258;102371;-74
2024/02/03 10:46:05;;;;;;;16.00;9.80;;;;;;;7.77;72.97;97247.16;104850;1277;101846;-75
2024/02/03 10:48:41;;;;;;;12.10;7.00;;;;;;;7.80;73.01;97247.39;104854;1255;99863;-74
2024/02/03 10:51:25;;;;;;;10.70;5.90;;;;;;;7.81;72.74;97247.57;104832;1258;96553;-75
2024/02/03 10:54:06;;;;;;;11.70;6.50;;;;;;;7.82;72.64;97240.55;104902;1266;98587;-74
2024/02/03 10:56:37;;;;;;;7.60;5.10;;;;;;;7.82;72.37;97238.48;104944;1254;101948;-74
2024/02/03 10:59:05;;;;;;;9.20;5.10;;;;;;;7.84;72.31;97237.70;104889;1258;101638;-74
2024/02/03 11:01:36;;;;;;;15.90;10.30;;;;;;;7.87;72.26;97236.64;104913;1257;100173;-75
2024/02/03 11:04:05;;;;;;;17.80;10.40;;;;;;;7.90;72.20;97235.75;104781;1256;96823;-74
2024/02/03 11:06:34;;;;;;;16.00;8.80;;;;;;;7.95;72.18;97231.55;104860;1254;98041;-75
2024/02/03 11:09:13;;;;;;;10.30;6.30;;;;;;;7.99;71.94;97226.52;104922;1269;102459;-75
2024/02/03 11:11:42;;;;;;;14.20;8.20;;;;;;;8.02;71.89;97221.91;104893;1257;100346;-74
2024/02/03 11:14:18;;;;;;;13.70;8.00;;;;;;;8.05;72.09;97216.18;104865;1255;98692;-75
2024/02/03 11:17:13;;;;;;;10.30;6.70;;;;;;;8.08;72.01;97207.64;104899;1257;96578;-76
2024/02/03 11:19:44;;;;;;;10.70;6.30;;;;;;;8.13;71.70;97206.31;104779;1255;97137;-81
2024/02/03 11:22:16;;;;;;;16.20;8.20;;;;;;;8.14;71.60;97200.63;104681;1262;100757;-77
2024/02/03 11:24:44;;;;;;;14.00;7.40;;;;;;;8.14;71.33;97198.42;104889;1268;101694;-76
2024/02/03 11:27:12;;;;;;;12.40;7.50;;;;;;;8.17;71.57;97195.55;104795;1276;99926;-76
2024/02/03 11:29:39;;;;;;;10.30;6.70;;;;;;;8.19;71.07;97198.71;104848;1268;97524;-77
2024/02/03 11:32:08;;;;;;;10.70;6.20;;;;;;;8.19;70.99;97200.15;104868;1258;97773;-76